Time;durP1;ratioP1;P1;durP2;ratioP2;P2;SDS_P1;SDS_P2;PMS_P1;PMS_P2;Temp;Humidity;BMP_temperature;BMP_pressure;BME280_temperature;BME280_humidity;BME280_pressure;Samples;Min_cycle;Max_cycle;Signal;HPM_P1;HPM_P2
2024/01/03 00:01:13;;;;;;;32.33;3.13;;;;;;;;;;4985383;28;20061;-70
2024/01/03 00:03:40;;;;;;;34.70;4.10;;;;;;;;;;4977401;28;20050;-70
2024/01/03 00:06:08;;;;;;;38.95;5.30;;;;;;;;;;4975805;28;20053;-69
2024/01/03 00:08:38;;;;;;;39.55;4.80;;;;;;;;;;4967746;28;20066;-70
2024/01/03 00:11:05;;;;;;;21.20;3.17;;;;;;;;;;4971165;28;20379;-70
2024/01/03 00:14:06;;;;;;;27.58;3.85;;;;;;;;;;4974333;28;20054;-69
2024/01/03 00:16:34;;;;;;;29.63;3.90;;;;;;;;;;4990337;28;20046;-70
2024/01/03 00:19:03;;;;;;;31.80;4.55;;;;;;;;;;4991955;28;20050;-70
2024/01/03 00:21:31;;;;;;;25.65;3.50;;;;;;;;;;4967554;28;20109;-70
2024/01/03 00:23:59;;;;;;;29.00;4.00;;;;;;;;;;4986862;28;20501;-69
2024/01/03 00:26:27;;;;;;;30.52;4.72;;;;;;;;;;4991291;28;20066;-68
2024/01/03 00:28:55;;;;;;;27.52;3.95;;;;;;;;;;4993881;28;20048;-68
2024/01/03 00:31:33;;;;;;;21.17;2.70;;;;;;;;;;4980168;28;20401;-68
2024/01/03 00:34:00;;;;;;;36.20;4.35;;;;;;;;;;4993699;28;20046;-68
2024/01/03 00:36:28;;;;;;;27.17;3.65;;;;;;;;;;4963073;28;20058;-67
2024/01/03 00:38:55;;;;;;;23.70;3.55;;;;;;;;;;4991837;28;20054;-68
2024/01/03 00:41:24;;;;;;;36.33;4.05;;;;;;;;;;4991997;28;20038;-68
2024/01/03 00:43:51;;;;;;;30.27;4.18;;;;;;;;;;4975455;28;20072;-67
2024/01/03 00:46:18;;;;;;;24.83;2.65;;;;;;;;;;4993129;28;20046;-67
2024/01/03 00:48:45;;;;;;;28.20;2.63;;;;;;;;;;4992744;28;20053;-68
2024/01/03 00:51:13;;;;;;;0.20;0.20;;;;;;;;;;4974843;28;20409;-68
2024/01/03 00:53:40;;;;;;;30.85;4.43;;;;;;;;;;4993074;28;20051;-67
2024/01/03 00:56:08;;;;;;;38.55;3.55;;;;;;;;;;4991824;28;20069;-68
2024/01/03 00:58:36;;;;;;;38.35;4.53;;;;;;;;;;4992252;28;20050;-68
2024/01/03 01:01:04;;;;;;;30.30;3.88;;;;;;;;;;4992258;28;20065;-68
2024/01/03 01:03:31;;;;;;;25.70;4.05;;;;;;;;;;4992465;28;20064;-68
2024/01/03 01:05:58;;;;;;;28.02;3.10;;;;;;;;;;4993588;28;20061;-68
2024/01/03 01:08:26;;;;;;;40.28;5.22;;;;;;;;;;4991647;28;20038;-69
2024/01/03 01:10:53;;;;;;;28.38;4.05;;;;;;;;;;4994242;28;20533;-68
2024/01/03 01:13:20;;;;;;;27.17;3.35;;;;;;;;;;4991993;28;20054;-68
2024/01/03 01:15:49;;;;;;;32.50;4.95;;;;;;;;;;4992495;28;20494;-68
2024/01/03 01:18:16;;;;;;;27.35;4.35;;;;;;;;;;4990657;28;20042;-68
2024/01/03 01:20:43;;;;;;;31.05;4.32;;;;;;;;;;4974593;28;20520;-68
2024/01/03 01:23:10;;;;;;;21.67;2.92;;;;;;;;;;4993939;28;20051;-67
2024/01/03 01:25:37;;;;;;;29.60;3.17;;;;;;;;;;4991692;28;20046;-67
2024/01/03 01:28:05;;;;;;;35.92;4.20;;;;;;;;;;4990952;28;20050;-67
2024/01/03 01:30:32;;;;;;;26.35;4.00;;;;;;;;;;4990889;28;20524;-67
2024/01/03 01:33:01;;;;;;;21.70;3.22;;;;;;;;;;4989959;28;20050;-66
2024/01/03 01:35:28;;;;;;;32.50;4.15;;;;;;;;;;4987217;28;20050;-67
2024/01/03 01:37:55;;;;;;;21.17;2.28;;;;;;;;;;4986963;28;20057;-67
2024/01/03 01:40:22;;;;;;;22.38;2.22;;;;;;;;;;4985674;28;20057;-68
2024/01/03 01:42:50;;;;;;;25.58;3.00;;;;;;;;;;4989353;28;20050;-66
2024/01/03 01:45:17;;;;;;;25.00;3.28;;;;;;;;;;4991840;28;20054;-67
2024/01/03 01:47:44;;;;;;;28.15;3.90;;;;;;;;;;4987756;28;20516;-66
2024/01/03 01:50:13;;;;;;;31.15;3.30;;;;;;;;;;4991585;28;20065;-66
2024/01/03 01:52:41;;;;;;;32.47;3.97;;;;;;;;;;4989918;28;20050;-66
2024/01/03 01:55:09;;;;;;;26.95;3.13;;;;;;;;;;4982725;28;20042;-67
2024/01/03 01:57:37;;;;;;;28.88;3.95;;;;;;;;;;4982534;28;20051;-67
2024/01/03 02:00:06;;;;;;;24.13;2.97;;;;;;;;;;4971466;28;20418;-66
2024/01/03 02:02:34;;;;;;;21.60;3.67;;;;;;;;;;4983989;28;20078;-67
2024/01/03 02:05:01;;;;;;;22.50;3.20;;;;;;;;;;4968602;28;20145;-67
2024/01/03 02:07:32;;;;;;;19.70;3.53;;;;;;;;;;4987333;28;20054;-67
2024/01/03 02:09:59;;;;;;;24.67;2.53;;;;;;;;;;4988260;28;21920;-67
2024/01/03 02:12:29;;;;;;;20.98;2.40;;;;;;;;;;4969749;28;20058;-68
2024/01/03 02:14:57;;;;;;;23.00;2.67;;;;;;;;;;4985689;28;20046;-69
2024/01/03 02:17:24;;;;;;;18.55;2.97;;;;;;;;;;4987886;28;20085;-68
2024/01/03 02:19:52;;;;;;;22.55;2.70;;;;;;;;;;4987614;28;20046;-67
2024/01/03 02:22:20;;;;;;;26.63;2.50;;;;;;;;;;4989520;28;20248;-67
2024/01/03 02:24:48;;;;;;;30.02;2.90;;;;;;;;;;4972484;28;20098;-68
2024/01/03 02:27:15;;;;;;;25.85;3.30;;;;;;;;;;4989464;28;21630;-66
2024/01/03 02:29:42;;;;;;;27.73;3.65;;;;;;;;;;4985238;28;20060;-67
2024/01/03 02:32:09;;;;;;;31.65;3.55;;;;;;;;;;4985862;28;20042;-68
2024/01/03 02:34:36;;;;;;;23.25;3.17;;;;;;;;;;4990135;28;20058;-67
2024/01/03 02:37:04;;;;;;;20.63;1.77;;;;;;;;;;4981714;28;20057;-66
2024/01/03 02:39:33;;;;;;;29.45;3.28;;;;;;;;;;4984329;28;20069;-67
2024/01/03 02:42:00;;;;;;;21.48;2.72;;;;;;;;;;4987920;28;20520;-68
2024/01/03 02:44:27;;;;;;;24.35;2.38;;;;;;;;;;4988376;28;20078;-68
2024/01/03 02:46:55;;;;;;;17.95;2.50;;;;;;;;;;4990876;28;20046;-68
2024/01/03 02:49:22;;;;;;;19.00;2.67;;;;;;;;;;4986805;28;20042;-67
2024/01/03 02:51:51;;;;;;;23.63;2.70;;;;;;;;;;4990892;28;20535;-67
2024/01/03 02:54:18;;;;;;;18.75;2.85;;;;;;;;;;4967707;28;20054;-67
2024/01/03 02:56:46;;;;;;;23.08;2.30;;;;;;;;;;4970733;28;20062;-67
2024/01/03 02:59:14;;;;;;;17.30;2.15;;;;;;;;;;4972696;28;20537;-67
2024/01/03 03:01:41;;;;;;;22.38;3.33;;;;;;;;;;4987175;28;20482;-68
2024/01/03 03:04:08;;;;;;;22.85;2.70;;;;;;;;;;4988657;28;20144;-68
2024/01/03 03:06:35;;;;;;;20.30;2.40;;;;;;;;;;4989630;28;20058;-67
2024/01/03 03:09:03;;;;;;;17.25;2.67;;;;;;;;;;4970704;28;21127;-67
2024/01/03 03:11:30;;;;;;;27.63;3.60;;;;;;;;;;4983749;28;20501;-67
2024/01/03 03:13:59;;;;;;;19.05;2.03;;;;;;;;;;4985388;28;20050;-68
2024/01/03 03:16:26;;;;;;;21.45;2.42;;;;;;;;;;4990423;28;20425;-67
2024/01/03 03:18:53;;;;;;;10.82;1.65;;;;;;;;;;4981864;28;20702;-68
2024/01/03 03:21:20;;;;;;;13.98;1.90;;;;;;;;;;4988034;28;20062;-68
2024/01/03 03:23:48;;;;;;;15.98;2.17;;;;;;;;;;4986535;28;20046;-68
2024/01/03 03:26:15;;;;;;;12.98;1.77;;;;;;;;;;4977226;28;20069;-68
2024/01/03 03:28:42;;;;;;;16.98;2.55;;;;;;;;;;4986210;28;20546;-68
2024/01/03 03:31:11;;;;;;;13.52;2.00;;;;;;;;;;4988051;28;20048;-68
2024/01/03 03:33:39;;;;;;;17.77;2.15;;;;;;;;;;4981680;28;20054;-68
2024/01/03 03:36:12;;;;;;;22.65;2.60;;;;;;;;;;4989598;28;20055;-67
2024/01/03 03:38:40;;;;;;;26.58;2.67;;;;;;;;;;4986695;28;20488;-68
2024/01/03 03:41:10;;;;;;;14.43;2.03;;;;;;;;;;4988415;28;20059;-67
2024/01/03 03:43:37;;;;;;;22.65;3.88;;;;;;;;;;4974075;28;20054;-67
2024/01/03 03:46:04;;;;;;;17.77;2.97;;;;;;;;;;4984119;28;20046;-67
2024/01/03 03:48:33;;;;;;;16.83;1.95;;;;;;;;;;4988209;28;20062;-67
2024/01/03 03:51:01;;;;;;;16.85;2.40;;;;;;;;;;4980131;28;20042;-68
2024/01/03 03:53:28;;;;;;;13.77;1.90;;;;;;;;;;4963190;28;20057;-70
2024/01/03 03:55:55;;;;;;;27.67;4.82;;;;;;;;;;4987729;28;20065;-69
2024/01/03 03:58:23;;;;;;;16.23;2.47;;;;;;;;;;4989002;28;20057;-70
2024/01/03 04:00:50;;;;;;;21.73;2.97;;;;;;;;;;4984453;28;20054;-70
2024/01/03 04:03:17;;;;;;;24.98;2.67;;;;;;;;;;4988313;28;20506;-70
2024/01/03 04:05:46;;;;;;;19.67;2.10;;;;;;;;;;4988939;28;20042;-70
2024/01/03 04:08:13;;;;;;;15.43;1.48;;;;;;;;;;4987173;28;20046;-69
2024/01/03 04:10:40;;;;;;;19.25;1.90;;;;;;;;;;4982210;28;20050;-70
2024/01/03 04:13:07;;;;;;;19.15;1.83;;;;;;;;;;4988035;28;20042;-70
2024/01/03 04:15:35;;;;;;;22.45;2.25;;;;;;;;;;4986005;28;20043;-70
2024/01/03 04:18:04;;;;;;;21.48;2.53;;;;;;;;;;4970715;28;20068;-70
2024/01/03 04:20:31;;;;;;;29.52;2.42;;;;;;;;;;4984070;28;20101;-70
2024/01/03 04:23:00;;;;;;;20.77;2.38;;;;;;;;;;4985412;28;20509;-70
2024/01/03 04:25:27;;;;;;;22.75;2.90;;;;;;;;;;4987686;28;20524;-70
2024/01/03 04:27:54;;;;;;;23.23;2.22;;;;;;;;;;4988895;28;20046;-70
2024/01/03 04:30:21;;;;;;;23.85;2.72;;;;;;;;;;4983974;28;20081;-70
2024/01/03 04:32:49;;;;;;;21.95;2.53;;;;;;;;;;4987685;28;20046;-70
2024/01/03 04:35:16;;;;;;;17.20;2.30;;;;;;;;;;4983878;28;20062;-70
2024/01/03 04:37:43;;;;;;;17.58;2.10;;;;;;;;;;4984125;28;20050;-70
2024/01/03 04:40:13;;;;;;;26.23;2.97;;;;;;;;;;4968510;28;20045;-69
2024/01/03 04:42:40;;;;;;;20.40;2.50;;;;;;;;;;4988278;28;20054;-70
2024/01/03 04:45:07;;;;;;;18.77;2.75;;;;;;;;;;4984689;28;20046;-70
2024/01/03 04:47:34;;;;;;;18.17;2.72;;;;;;;;;;4986050;28;20078;-70
2024/01/03 04:50:02;;;;;;;23.17;2.58;;;;;;;;;;4986735;28;20390;-69
2024/01/03 04:52:29;;;;;;;21.35;2.80;;;;;;;;;;4985778;28;20061;-69
2024/01/03 04:54:56;;;;;;;22.15;2.30;;;;;;;;;;4986157;28;20053;-70
2024/01/03 04:57:25;;;;;;;20.10;2.70;;;;;;;;;;4988096;28;20050;-70
2024/01/03 04:59:52;;;;;;;14.32;2.22;;;;;;;;;;4987142;28;20050;-70
2024/01/03 05:02:19;;;;;;;19.63;2.13;;;;;;;;;;4987346;28;20133;-70
2024/01/03 05:04:48;;;;;;;12.85;1.92;;;;;;;;;;4989801;28;20046;-69
2024/01/03 05:07:16;;;;;;;16.40;2.50;;;;;;;;;;4987183;28;20135;-69
2024/01/03 05:09:43;;;;;;;15.35;1.80;;;;;;;;;;4989884;28;20050;-69
2024/01/03 05:12:10;;;;;;;21.02;2.25;;;;;;;;;;4991045;28;20042;-69
2024/01/03 05:14:39;;;;;;;16.95;2.25;;;;;;;;;;4990955;28;20486;-69
2024/01/03 05:17:06;;;;;;;19.50;2.20;;;;;;;;;;4987437;28;20058;-69
2024/01/03 05:19:33;;;;;;;25.83;3.40;;;;;;;;;;4991310;28;20458;-69
2024/01/03 05:22:01;;;;;;;25.60;3.08;;;;;;;;;;4990709;28;20050;-69
2024/01/03 05:24:28;;;;;;;25.58;3.53;;;;;;;;;;4991351;28;20054;-69
2024/01/03 05:26:55;;;;;;;29.30;3.42;;;;;;;;;;4990901;28;20121;-69
2024/01/03 05:29:23;;;;;;;26.52;2.88;;;;;;;;;;4985770;28;20054;-70
2024/01/03 05:31:51;;;;;;;24.92;2.47;;;;;;;;;;4971626;28;20050;-69
2024/01/03 05:34:19;;;;;;;14.27;1.63;;;;;;;;;;4991867;28;20490;-70
2024/01/03 05:36:46;;;;;;;14.15;1.63;;;;;;;;;;4983022;28;20513;-70
2024/01/03 05:39:13;;;;;;;20.20;2.20;;;;;;;;;;4991594;28;20061;-71
2024/01/03 05:41:40;;;;;;;13.98;1.77;;;;;;;;;;4989300;28;20191;-70
2024/01/03 05:44:08;;;;;;;23.67;2.97;;;;;;;;;;4989889;28;20047;-71
2024/01/03 05:46:35;;;;;;;25.40;2.78;;;;;;;;;;4989710;28;20046;-70
2024/01/03 05:49:05;;;;;;;31.10;3.72;;;;;;;;;;4991397;28;20043;-70
2024/01/03 05:51:32;;;;;;;39.15;3.63;;;;;;;;;;4990644;28;20078;-70
2024/01/03 05:54:00;;;;;;;33.47;3.40;;;;;;;;;;4990619;28;20061;-70
2024/01/03 05:56:27;;;;;;;37.58;3.63;;;;;;;;;;4990478;28;20057;-70
2024/01/03 05:58:54;;;;;;;37.38;4.60;;;;;;;;;;4986104;28;20042;-70
2024/01/03 06:01:22;;;;;;;30.30;3.58;;;;;;;;;;4987159;28;20410;-70
2024/01/03 06:03:50;;;;;;;23.63;3.33;;;;;;;;;;4990697;28;20054;-70
2024/01/03 06:06:19;;;;;;;30.73;4.72;;;;;;;;;;4990963;28;20128;-70
2024/01/03 06:08:46;;;;;;;24.08;3.15;;;;;;;;;;4989405;28;20050;-70
2024/01/03 06:11:13;;;;;;;36.10;3.65;;;;;;;;;;4987616;28;20054;-70
2024/01/03 06:13:42;;;;;;;25.83;2.47;;;;;;;;;;4989249;28;20049;-67
2024/01/03 06:16:10;;;;;;;29.05;3.88;;;;;;;;;;4990954;28;20074;-68
2024/01/03 06:18:37;;;;;;;22.90;2.85;;;;;;;;;;4985717;28;20046;-68
2024/01/03 06:21:11;;;;;;;32.55;4.68;;;;;;;;;;4985764;28;20054;-69
2024/01/03 06:23:40;;;;;;;41.65;3.58;;;;;;;;;;4990464;28;20057;-68
2024/01/03 06:26:07;;;;;;;40.53;4.25;;;;;;;;;;4989938;28;20481;-67
2024/01/03 06:28:35;;;;;;;42.30;4.53;;;;;;;;;;4989797;28;20166;-67
2024/01/03 06:31:03;;;;;;;31.25;3.00;;;;;;;;;;4989359;28;20073;-67
2024/01/03 06:33:30;;;;;;;38.58;4.60;;;;;;;;;;4987600;28;20061;-66
2024/01/03 06:35:59;;;;;;;37.80;4.30;;;;;;;;;;4989278;28;20482;-67
2024/01/03 06:38:26;;;;;;;30.13;2.90;;;;;;;;;;4990850;28;20062;-68
2024/01/03 06:40:55;;;;;;;19.15;2.35;;;;;;;;;;4989002;28;20490;-66
2024/01/03 06:43:22;;;;;;;29.98;3.20;;;;;;;;;;4985888;28;20418;-67
2024/01/03 06:45:49;;;;;;;34.25;3.88;;;;;;;;;;4989252;28;20065;-68
2024/01/03 06:48:17;;;;;;;36.42;3.67;;;;;;;;;;4988142;28;20406;-68
2024/01/03 06:50:44;;;;;;;29.13;4.07;;;;;;;;;;4979682;28;20445;-69
2024/01/03 06:53:11;;;;;;;30.75;3.58;;;;;;;;;;4968643;28;20417;-69
2024/01/03 06:55:39;;;;;;;40.15;3.53;;;;;;;;;;4983486;28;20054;-68
2024/01/03 06:58:07;;;;;;;26.52;3.50;;;;;;;;;;4985528;28;20054;-68
2024/01/03 07:00:34;;;;;;;29.20;4.18;;;;;;;;;;4974752;28;20532;-70
2024/01/03 07:03:02;;;;;;;34.28;3.85;;;;;;;;;;4971659;28;20064;-68
2024/01/03 07:05:29;;;;;;;32.88;3.10;;;;;;;;;;4981927;28;20050;-68
2024/01/03 07:07:58;;;;;;;34.40;3.65;;;;;;;;;;4983553;28;20039;-68
2024/01/03 07:10:31;;;;;;;34.13;3.58;;;;;;;;;;4984803;28;20054;-67
2024/01/03 07:12:59;;;;;;;23.42;3.40;;;;;;;;;;4984651;28;20141;-68
2024/01/03 07:15:28;;;;;;;26.10;2.60;;;;;;;;;;4971107;28;20524;-67
2024/01/03 07:17:55;;;;;;;28.75;3.08;;;;;;;;;;4984376;28;20429;-68
2024/01/03 07:20:23;;;;;;;32.95;3.40;;;;;;;;;;4987788;28;20076;-68
2024/01/03 07:22:50;;;;;;;31.20;2.78;;;;;;;;;;4970166;28;20449;-72
2024/01/03 07:25:17;;;;;;;26.15;3.20;;;;;;;;;;4984521;28;20061;-71
2024/01/03 07:27:45;;;;;;;21.30;3.05;;;;;;;;;;4987707;28;20054;-71
2024/01/03 07:30:13;;;;;;;27.33;3.05;;;;;;;;;;4987816;28;20042;-71
2024/01/03 07:32:41;;;;;;;29.83;3.22;;;;;;;;;;4965334;28;20145;-72
2024/01/03 07:35:09;;;;;;;31.13;3.53;;;;;;;;;;4987921;28;20054;-71
2024/01/03 07:37:36;;;;;;;22.92;2.70;;;;;;;;;;4984444;28;20054;-71
2024/01/03 07:40:04;;;;;;;27.33;3.17;;;;;;;;;;4986188;28;20050;-71
2024/01/03 07:42:31;;;;;;;19.02;2.10;;;;;;;;;;4987638;28;20051;-71
2024/01/03 07:44:58;;;;;;;31.73;3.50;;;;;;;;;;4984887;28;20050;-71
2024/01/03 07:47:26;;;;;;;26.95;3.00;;;;;;;;;;4982725;28;20051;-71
2024/01/03 07:49:54;;;;;;;19.65;2.83;;;;;;;;;;4966280;28;20043;-72
2024/01/03 07:52:21;;;;;;;25.60;2.58;;;;;;;;;;4967703;28;20061;-73
2024/01/03 07:54:49;;;;;;;24.25;2.60;;;;;;;;;;4971863;28;20061;-72
2024/01/03 07:57:16;;;;;;;19.83;2.53;;;;;;;;;;4988247;28;20485;-72
2024/01/03 07:59:45;;;;;;;20.95;2.60;;;;;;;;;;4963799;28;20115;-72
2024/01/03 08:02:12;;;;;;;25.75;2.70;;;;;;;;;;4985036;28;20513;-73
2024/01/03 08:04:40;;;;;;;31.27;3.00;;;;;;;;;;4988560;28;20051;-72
2024/01/03 08:07:08;;;;;;;33.20;4.43;;;;;;;;;;4982056;28;20486;-72
2024/01/03 08:09:37;;;;;;;30.65;2.97;;;;;;;;;;4989415;28;20054;-72
2024/01/03 08:12:05;;;;;;;26.95;2.53;;;;;;;;;;4982107;28;20057;-72
2024/01/03 08:14:34;;;;;;;20.60;2.22;;;;;;;;;;4988065;28;20098;-73
2024/01/03 08:17:01;;;;;;;20.00;1.90;;;;;;;;;;4988465;28;20054;-73
2024/01/03 08:19:28;;;;;;;19.38;2.22;;;;;;;;;;4984685;28;20054;-73
2024/01/03 08:21:55;;;;;;;15.35;1.80;;;;;;;;;;4977150;28;20150;-73
2024/01/03 08:24:25;;;;;;;17.40;1.90;;;;;;;;;;4988271;28;20046;-72
2024/01/03 08:26:52;;;;;;;18.35;1.77;;;;;;;;;;4986899;28;20050;-72
2024/01/03 08:29:19;;;;;;;17.40;1.95;;;;;;;;;;4971081;28;20077;-73
2024/01/03 08:31:48;;;;;;;24.17;2.38;;;;;;;;;;4987148;28;20047;-72
2024/01/03 08:34:15;;;;;;;28.05;2.03;;;;;;;;;;4985008;28;20058;-68
2024/01/03 08:36:43;;;;;;;27.85;2.72;;;;;;;;;;4992884;28;20046;-68
2024/01/03 08:39:10;;;;;;;29.15;2.78;;;;;;;;;;4995497;28;20394;-68
2024/01/03 08:41:39;;;;;;;22.35;2.30;;;;;;;;;;4993457;28;20054;-68
2024/01/03 08:44:07;;;;;;;22.17;3.33;;;;;;;;;;4993363;28;20046;-68
2024/01/03 08:46:34;;;;;;;21.25;2.67;;;;;;;;;;4993792;28;20141;-68
2024/01/03 08:49:03;;;;;;;28.00;2.50;;;;;;;;;;4989511;28;20181;-69
2024/01/03 08:51:31;;;;;;;25.20;2.50;;;;;;;;;;4993523;28;20054;-71
2024/01/03 08:53:59;;;;;;;23.13;3.63;;;;;;;;;;4974573;28;20051;-69
2024/01/03 08:56:26;;;;;;;29.52;2.35;;;;;;;;;;4975599;28;20058;-68
2024/01/03 08:58:54;;;;;;;23.13;2.40;;;;;;;;;;4993639;28;20053;-68
2024/01/03 09:01:22;;;;;;;18.58;2.25;;;;;;;;;;4984877;28;20050;-69
2024/01/03 09:03:50;;;;;;;16.27;1.75;;;;;;;;;;4984557;28;20043;-68
2024/01/03 09:06:19;;;;;;;11.60;1.50;;;;;;;;;;4993438;28;20046;-69
2024/01/03 09:08:50;;;;;;;17.27;1.90;;;;;;;;;;4994153;28;20053;-68
2024/01/03 09:11:18;;;;;;;25.35;3.03;;;;;;;;;;4992926;28;20042;-68
2024/01/03 09:13:49;;;;;;;26.02;3.00;;;;;;;;;;4979345;28;20144;-68
2024/01/03 09:16:18;;;;;;;23.90;3.00;;;;;;;;;;4992538;28;20061;-68
2024/01/03 09:18:46;;;;;;;24.50;2.42;;;;;;;;;;4991244;28;20054;-68
2024/01/03 09:21:13;;;;;;;27.00;2.97;;;;;;;;;;4992387;28;20383;-68
2024/01/03 09:23:41;;;;;;;24.35;2.42;;;;;;;;;;4980484;28;20049;-69
2024/01/03 09:26:10;;;;;;;24.27;3.20;;;;;;;;;;4975885;28;20053;-68
2024/01/03 09:28:38;;;;;;;25.02;2.35;;;;;;;;;;4988516;28;20549;-68
2024/01/03 09:31:06;;;;;;;23.10;2.35;;;;;;;;;;4997156;28;20050;-67
2024/01/03 09:33:35;;;;;;;19.77;2.90;;;;;;;;;;4990967;28;20060;-68
2024/01/03 09:36:02;;;;;;;18.75;2.22;;;;;;;;;;4972638;28;20061;-68
2024/01/03 09:38:30;;;;;;;18.77;2.00;;;;;;;;;;4990367;28;20091;-69
2024/01/03 09:40:57;;;;;;;16.70;2.13;;;;;;;;;;4992211;28;20038;-68
2024/01/03 09:43:25;;;;;;;17.33;1.73;;;;;;;;;;4974084;28;20085;-72
2024/01/03 09:45:53;;;;;;;26.20;2.47;;;;;;;;;;4991602;28;20042;-72
2024/01/03 09:48:20;;;;;;;23.85;2.17;;;;;;;;;;4973225;28;20493;-72
2024/01/03 09:50:49;;;;;;;20.15;2.03;;;;;;;;;;4991341;28;20046;-73
2024/01/03 09:53:17;;;;;;;18.23;2.28;;;;;;;;;;4990623;28;20089;-72
2024/01/03 09:55:45;;;;;;;18.92;2.05;;;;;;;;;;4990925;28;20065;-72
2024/01/03 09:58:12;;;;;;;29.15;2.22;;;;;;;;;;4985393;28;20059;-73
2024/01/03 10:00:39;;;;;;;20.40;2.88;;;;;;;;;;4991195;28;20097;-73
2024/01/03 10:03:07;;;;;;;18.90;2.20;;;;;;;;;;4989243;28;20046;-73
2024/01/03 10:05:35;;;;;;;15.23;1.48;;;;;;;;;;4997056;28;20085;-73
2024/01/03 10:08:14;;;;;;;13.93;1.65;;;;;;;;;;4992683;28;20050;-72
2024/01/03 10:10:44;;;;;;;18.10;2.28;;;;;;;;;;4994069;28;20065;-73
2024/01/03 10:13:15;;;;;;;14.07;2.00;;;;;;;;;;4989039;28;20062;-73
2024/01/03 10:15:43;;;;;;;13.55;1.60;;;;;;;;;;4991071;28;20513;-72
2024/01/03 10:18:11;;;;;;;21.63;2.30;;;;;;;;;;4987359;28;20474;-73
2024/01/03 10:20:39;;;;;;;17.35;1.55;;;;;;;;;;4989303;28;20061;-72
2024/01/03 10:23:07;;;;;;;12.98;1.85;;;;;;;;;;4988159;28;20136;-72
2024/01/03 10:25:35;;;;;;;19.20;1.88;;;;;;;;;;4989866;28;20064;-73
2024/01/03 10:28:03;;;;;;;17.88;1.85;;;;;;;;;;4987768;28;20853;-73
2024/01/03 10:30:30;;;;;;;14.13;2.10;;;;;;;;;;4971623;28;20042;-72
2024/01/03 10:32:58;;;;;;;21.38;2.10;;;;;;;;;;4989757;28;20042;-72
2024/01/03 10:35:27;;;;;;;25.58;3.30;;;;;;;;;;4989948;28;20054;-72
2024/01/03 10:37:55;;;;;;;26.73;3.08;;;;;;;;;;4989051;28;20050;-73
2024/01/03 10:40:23;;;;;;;20.35;2.83;;;;;;;;;;4986538;28;20125;-72
2024/01/03 10:42:53;;;;;;;23.98;3.28;;;;;;;;;;4987506;28;20129;-72
2024/01/03 10:45:20;;;;;;;32.35;3.33;;;;;;;;;;4988879;28;20143;-72
2024/01/03 10:47:47;;;;;;;18.10;1.98;;;;;;;;;;4990964;28;20050;-72
2024/01/03 10:50:15;;;;;;;20.98;2.63;;;;;;;;;;4987572;28;21201;-72
2024/01/03 10:52:42;;;;;;;21.20;2.47;;;;;;;;;;4990167;28;20050;-68
2024/01/03 10:55:11;;;;;;;23.70;2.22;;;;;;;;;;4985936;28;20050;-68
2024/01/03 10:57:41;;;;;;;29.23;2.78;;;;;;;;;;4989446;28;20438;-69
2024/01/03 11:00:13;;;;;;;16.88;2.35;;;;;;;;;;4986322;28;20521;-68
2024/01/03 11:02:44;;;;;;;26.45;3.10;;;;;;;;;;4987760;28;20080;-68
2024/01/03 11:05:15;;;;;;;28.35;2.90;;;;;;;;;;4988735;28;20093;-68
2024/01/03 11:07:46;;;;;;;14.23;2.10;;;;;;;;;;4972495;28;20061;-68
2024/01/03 11:10:45;;;;;;;19.27;2.25;;;;;;;;;;4984742;28;20510;-68
2024/01/03 11:13:26;;;;;;;21.27;2.22;;;;;;;;;;4988308;28;20058;-68
2024/01/03 11:15:55;;;;;;;19.92;2.47;;;;;;;;;;4989744;28;20434;-68
2024/01/03 11:18:40;;;;;;;17.30;2.20;;;;;;;;;;4985220;28;20134;-69
2024/01/03 11:21:26;;;;;;;14.98;2.20;;;;;;;;;;4988312;28;20128;-68
2024/01/03 11:23:53;;;;;;;32.05;5.00;;;;;;;;;;4969634;28;20057;-68
2024/01/03 11:26:20;;;;;;;23.02;2.65;;;;;;;;;;4971950;28;20057;-69
2024/01/03 11:28:49;;;;;;;26.25;2.38;;;;;;;;;;4987864;28;20039;-68
2024/01/03 11:31:38;;;;;;;19.58;1.98;;;;;;;;;;4990513;28;20061;-69
2024/01/03 11:34:27;;;;;;;17.15;2.55;;;;;;;;;;4989112;28;20128;-68
2024/01/03 11:36:54;;;;;;;17.27;2.55;;;;;;;;;;4987460;28;20049;-68
2024/01/03 11:39:34;;;;;;;21.10;2.60;;;;;;;;;;4972605;28;20058;-67
2024/01/03 11:42:02;;;;;;;13.35;2.15;;;;;;;;;;4988913;28;20046;-68
2024/01/03 11:44:29;;;;;;;18.83;2.75;;;;;;;;;;4972647;28;20100;-68
2024/01/03 11:47:01;;;;;;;29.50;2.85;;;;;;;;;;4987167;28;20058;-67
2024/01/03 11:49:28;;;;;;;22.33;2.58;;;;;;;;;;4988912;28;20050;-69
2024/01/03 11:51:57;;;;;;;20.65;1.90;;;;;;;;;;4968423;28;20486;-68
2024/01/03 11:54:24;;;;;;;23.30;2.50;;;;;;;;;;4989270;28;20049;-67
2024/01/03 11:56:53;;;;;;;24.83;2.63;;;;;;;;;;4988866;28;20047;-68
2024/01/03 11:59:21;;;;;;;23.27;2.78;;;;;;;;;;4987338;28;20054;-69
2024/01/03 12:02:07;;;;;;;19.42;3.72;;;;;;;;;;4988531;28;20054;-67
2024/01/03 12:04:36;;;;;;;23.65;2.45;;;;;;;;;;4985509;28;20056;-68
2024/01/03 12:07:03;;;;;;;18.98;2.28;;;;;;;;;;4983087;28;20050;-67
2024/01/03 12:09:32;;;;;;;20.52;2.10;;;;;;;;;;4981075;28;20703;-67
2024/01/03 12:11:59;;;;;;;24.70;2.72;;;;;;;;;;4961052;28;20043;-66
2024/01/03 12:14:29;;;;;;;21.33;2.92;;;;;;;;;;4991371;28;20065;-68
2024/01/03 12:16:57;;;;;;;13.98;2.63;;;;;;;;;;4985122;28;20069;-67
2024/01/03 12:19:24;;;;;;;21.77;2.58;;;;;;;;;;4988274;28;20050;-69
2024/01/03 12:21:57;;;;;;;14.80;1.98;;;;;;;;;;4992617;28;20073;-67
2024/01/03 12:24:37;;;;;;;23.43;2.90;;;;;;;;;;4974963;28;20054;-69
2024/01/03 12:27:05;;;;;;;19.15;2.00;;;;;;;;;;4990991;28;20130;-67
2024/01/03 12:29:33;;;;;;;21.60;3.10;;;;;;;;;;4992052;28;20072;-67
2024/01/03 12:32:09;;;;;;;22.23;2.22;;;;;;;;;;4987377;28;20042;-67
2024/01/03 12:34:36;;;;;;;11.10;2.40;;;;;;;;;;4988531;28;20050;-68
2024/01/03 12:37:05;;;;;;;13.82;2.20;;;;;;;;;;4984239;28;20672;-67
2024/01/03 12:39:35;;;;;;;14.93;2.00;;;;;;;;;;4991423;28;20050;-67
2024/01/03 12:42:05;;;;;;;15.02;1.80;;;;;;;;;;4973157;28;20043;-68
2024/01/03 12:44:32;;;;;;;14.23;2.00;;;;;;;;;;4991763;28;20112;-69
2024/01/03 12:47:00;;;;;;;14.82;1.98;;;;;;;;;;4990737;28;20072;-67
2024/01/03 12:49:27;;;;;;;16.35;2.38;;;;;;;;;;4992356;28;20054;-68
2024/01/03 12:51:55;;;;;;;18.38;2.78;;;;;;;;;;4990489;28;20049;-68
2024/01/03 12:54:24;;;;;;;16.25;1.73;;;;;;;;;;4974677;28;20633;-67
2024/01/03 12:56:51;;;;;;;6.68;1.33;;;;;;;;;;4991581;28;20043;-67
2024/01/03 12:59:18;;;;;;;18.92;2.97;;;;;;;;;;4991757;28;20054;-67
2024/01/03 13:01:46;;;;;;;16.67;1.73;;;;;;;;;;4990097;28;20094;-67
2024/01/03 13:04:14;;;;;;;12.85;1.38;;;;;;;;;;4990155;28;20081;-68
2024/01/03 13:06:42;;;;;;;21.38;2.30;;;;;;;;;;4989289;28;20108;-66
2024/01/03 13:09:10;;;;;;;19.23;1.70;;;;;;;;;;4988708;28;20497;-67
2024/01/03 13:11:39;;;;;;;23.30;2.38;;;;;;;;;;4973624;28;20047;-67
2024/01/03 13:14:06;;;;;;;24.00;3.00;;;;;;;;;;4988363;28;20164;-70
2024/01/03 13:16:33;;;;;;;18.73;2.30;;;;;;;;;;4989255;28;20057;-70
2024/01/03 13:19:00;;;;;;;18.00;2.13;;;;;;;;;;4985187;28;20050;-70
2024/01/03 13:21:28;;;;;;;11.07;1.80;;;;;;;;;;4985422;28;20062;-70
2024/01/03 13:23:56;;;;;;;14.50;2.17;;;;;;;;;;4989478;28;20052;-71
2024/01/03 13:26:23;;;;;;;17.90;2.15;;;;;;;;;;4992090;28;20050;-68
2024/01/03 13:28:52;;;;;;;19.08;2.10;;;;;;;;;;4989245;28;20061;-68
2024/01/03 13:31:19;;;;;;;22.17;2.85;;;;;;;;;;4989284;28;20061;-68
2024/01/03 13:33:46;;;;;;;18.80;2.33;;;;;;;;;;4990876;28;20397;-68
2024/01/03 13:36:14;;;;;;;14.48;2.63;;;;;;;;;;4990201;28;20153;-68
2024/01/03 13:38:41;;;;;;;11.07;1.55;;;;;;;;;;4973440;28;20050;-69
2024/01/03 13:41:08;;;;;;;20.10;1.77;;;;;;;;;;4980061;28;20051;-67
2024/01/03 13:43:35;;;;;;;17.23;2.47;;;;;;;;;;4988578;28;20417;-67
2024/01/03 13:46:04;;;;;;;16.92;2.85;;;;;;;;;;4990287;28;20054;-67
2024/01/03 13:48:32;;;;;;;17.00;2.22;;;;;;;;;;4990005;28;20050;-67
2024/01/03 13:50:59;;;;;;;16.50;3.05;;;;;;;;;;4973836;28;20050;-67
2024/01/03 13:53:26;;;;;;;14.30;2.58;;;;;;;;;;4989231;28;20050;-68
2024/01/03 13:55:54;;;;;;;15.90;2.03;;;;;;;;;;4990815;28;20050;-68
2024/01/03 13:58:21;;;;;;;14.60;2.53;;;;;;;;;;4987954;28;20047;-67
2024/01/03 14:00:49;;;;;;;18.85;2.42;;;;;;;;;;4989998;28;20577;-67
2024/01/03 14:03:17;;;;;;;18.45;2.42;;;;;;;;;;4987890;28;20046;-67
2024/01/03 14:05:44;;;;;;;15.23;2.25;;;;;;;;;;4992201;28;20050;-67
2024/01/03 14:08:12;;;;;;;18.92;2.03;;;;;;;;;;4989953;28;20058;-67
2024/01/03 14:10:39;;;;;;;15.57;2.35;;;;;;;;;;4991045;28;20047;-67
2024/01/03 14:13:06;;;;;;;19.70;2.22;;;;;;;;;;4970684;28;20069;-67
2024/01/03 14:15:34;;;;;;;15.27;2.40;;;;;;;;;;4991569;28;20395;-67
2024/01/03 14:18:01;;;;;;;25.58;3.10;;;;;;;;;;4987905;28;20125;-67
2024/01/03 14:20:30;;;;;;;13.23;1.90;;;;;;;;;;4989718;28;20062;-67
2024/01/03 14:22:58;;;;;;;17.17;2.30;;;;;;;;;;4989327;28;20170;-66
2024/01/03 14:25:25;;;;;;;13.25;1.65;;;;;;;;;;4988998;28;20046;-66
2024/01/03 14:27:53;;;;;;;15.80;2.60;;;;;;;;;;4988161;28;20375;-66
2024/01/03 14:30:20;;;;;;;14.05;1.90;;;;;;;;;;4973526;28;20133;-67
2024/01/03 14:32:47;;;;;;;13.23;1.77;;;;;;;;;;4987303;28;20069;-67
2024/01/03 14:35:16;;;;;;;16.42;1.83;;;;;;;;;;4989836;28;20157;-67
2024/01/03 14:37:45;;;;;;;13.95;2.72;;;;;;;;;;4962800;28;20104;-67